Time;durP1;ratioP1;P1;durP2;ratioP2;P2;SDS_P1;SDS_P2;PMS_P1;PMS_P2;Temp;Humidity;BMP_temperature;BMP_pressure;BME280_temperature;BME280_humidity;BME280_pressure;Samples;Min_cycle;Max_cycle;Signal;HPM_P1;HPM_P2
2023/07/31 00:00:16;;;;;;;5.40;3.97;;;16.60;94.50;;;;;;5043325;28;20473;-79
2023/07/31 00:02:43;;;;;;;4.90;4.30;;;16.80;94.60;;;;;;5030567;28;20480;-80
2023/07/31 00:05:11;;;;;;;4.40;4.00;;;16.80;94.80;;;;;;5030532;28;20589;-78
2023/07/31 00:07:37;;;;;;;6.03;4.17;;;16.80;94.30;;;;;;5035494;28;20472;-77
2023/07/31 00:10:05;;;;;;;4.37;3.87;;;16.80;94.20;;;;;;5035927;28;20477;-78
2023/07/31 00:12:32;;;;;;;6.57;4.00;;;16.70;94.30;;;;;;5025588;28;21054;-77
2023/07/31 00:15:00;;;;;;;5.03;4.53;;;16.70;94.40;;;;;;5036082;28;20509;-78
2023/07/31 00:17:27;;;;;;;8.03;4.97;;;16.80;94.70;;;;;;5040716;28;20438;-79
2023/07/31 00:19:54;;;;;;;5.00;4.50;;;16.70;94.30;;;;;;5035795;28;20446;-78
2023/07/31 00:22:21;;;;;;;3.90;3.40;;;16.70;94.50;;;;;;5034785;28;20923;-79
2023/07/31 00:24:48;;;;;;;4.60;3.80;;;16.70;94.50;;;;;;5037164;28;20457;-79
2023/07/31 00:27:15;;;;;;;4.77;3.70;;;16.70;94.50;;;;;;5030296;28;20473;-78
2023/07/31 00:29:42;;;;;;;3.90;3.50;;;16.70;94.10;;;;;;5018321;28;20446;-78
2023/07/31 00:32:09;;;;;;;4.83;4.27;;;16.70;94.10;;;;;;5031582;28;20486;-80
2023/07/31 00:34:37;;;;;;;3.70;3.30;;;16.80;94.00;;;;;;5035385;28;20441;-79
2023/07/31 00:37:04;;;;;;;4.80;4.23;;;16.80;94.00;;;;;;5035641;28;20505;-78
2023/07/31 00:39:33;;;;;;;6.03;3.87;;;16.70;94.00;;;;;;5035541;28;20416;-78
2023/07/31 00:42:00;;;;;;;4.30;3.43;;;16.70;93.50;;;;;;5039651;28;20533;-81
2023/07/31 00:44:27;;;;;;;5.23;3.67;;;16.70;93.80;;;;;;5039923;28;20449;-78
2023/07/31 00:46:56;;;;;;;3.97;3.57;;;16.70;93.80;;;;;;5041694;28;20441;-79
2023/07/31 00:49:23;;;;;;;5.97;3.23;;;16.70;93.30;;;;;;5038005;28;21050;-76
2023/07/31 00:51:50;;;;;;;4.00;3.60;;;16.60;93.10;;;;;;5038432;28;20455;-77
2023/07/31 00:54:17;;;;;;;5.10;3.80;;;16.60;93.40;;;;;;5038486;28;20552;-77
2023/07/31 00:56:46;;;;;;;4.00;3.60;;;16.60;93.30;;;;;;5034365;28;20475;-79
2023/07/31 00:59:12;;;;;;;4.50;3.27;;;16.70;93.20;;;;;;5035203;28;20446;-79
2023/07/31 01:01:40;;;;;;;5.87;3.47;;;16.50;93.10;;;;;;5023161;28;20433;-77
2023/07/31 01:04:07;;;;;;;4.10;3.07;;;16.60;92.70;;;;;;5051825;28;20536;-80
2023/07/31 01:06:43;;;;;;;3.80;3.10;;;16.60;92.70;;;;;;5039598;28;20441;-78
2023/07/31 01:09:35;;;;;;;5.40;3.37;;;16.60;92.80;;;;;;5051538;28;20412;-78
2023/07/31 01:12:04;;;;;;;4.70;3.57;;;16.50;92.60;;;;;;5042620;28;20464;-78
2023/07/31 01:14:31;;;;;;;4.10;3.43;;;16.60;92.80;;;;;;5054134;28;20423;-80
2023/07/31 01:16:57;;;;;;;3.73;3.40;;;16.40;92.50;;;;;;5055745;28;20441;-81
2023/07/31 01:19:27;;;;;;;8.53;3.47;;;16.60;92.40;;;;;;5034670;28;20454;-77
2023/07/31 01:22:16;;;;;;;5.37;4.00;;;16.60;92.50;;;;;;5039603;28;20484;-77
2023/07/31 01:25:00;;;;;;;7.13;3.50;;;16.50;93.10;;;;;;5013446;28;20446;-78
2023/07/31 01:27:33;;;;;;;6.03;3.60;;;16.50;92.90;;;;;;5026145;28;20436;-80
2023/07/31 01:30:10;;;;;;;7.13;4.43;;;16.50;92.90;;;;;;5045972;28;20812;-77
2023/07/31 01:32:42;;;;;;;5.37;3.20;;;16.50;92.70;;;;;;5037914;28;20472;-77
2023/07/31 01:35:09;;;;;;;6.27;3.80;;;16.50;92.70;;;;;;5040202;28;20459;-76
2023/07/31 01:37:36;;;;;;;5.20;3.17;;;16.50;92.60;;;;;;5040243;28;20441;-78
2023/07/31 01:40:06;;;;;;;4.33;3.17;;;16.60;92.10;;;;;;5038879;28;20505;-77
2023/07/31 01:42:33;;;;;;;4.97;3.37;;;16.60;92.00;;;;;;5037735;28;20491;-76
2023/07/31 01:45:00;;;;;;;6.03;2.97;;;16.60;92.00;;;;;;5038261;28;20504;-76
2023/07/31 01:47:30;;;;;;;5.90;3.53;;;16.50;92.20;;;;;;5039543;28;20488;-78
2023/07/31 01:49:57;;;;;;;4.73;3.70;;;16.60;92.20;;;;;;5039095;28;20416;-79
2023/07/31 01:52:24;;;;;;;4.73;3.00;;;16.70;92.00;;;;;;5039208;28;20487;-78
2023/07/31 01:54:51;;;;;;;5.53;3.03;;;16.60;92.20;;;;;;5033047;28;20491;-80
2023/07/31 01:57:18;;;;;;;3.60;3.03;;;16.60;92.10;;;;;;5043602;28;20453;-79
2023/07/31 01:59:47;;;;;;;8.03;3.80;;;16.50;92.20;;;;;;5044647;28;20661;-76
2023/07/31 02:02:13;;;;;;;5.00;3.63;;;16.50;92.30;;;;;;5040222;28;20452;-79
2023/07/31 02:04:40;;;;;;;8.77;4.13;;;16.50;92.20;;;;;;5031986;28;20449;-77
2023/07/31 02:07:08;;;;;;;6.13;3.37;;;16.50;92.70;;;;;;5046060;28;20770;-79
2023/07/31 02:09:35;;;;;;;7.10;3.77;;;16.40;92.70;;;;;;5037743;28;20829;-78
2023/07/31 02:12:03;;;;;;;6.80;3.50;;;16.40;92.50;;;;;;5038197;28;20449;-78
2023/07/31 02:14:30;;;;;;;8.67;4.00;;;16.40;92.80;;;;;;5020733;28;20480;-79
2023/07/31 02:16:57;;;;;;;7.67;3.93;;;16.40;92.80;;;;;;5039614;28;20434;-79
2023/07/31 02:19:24;;;;;;;5.27;3.53;;;16.30;93.00;;;;;;5041932;28;20459;-79
2023/07/31 02:21:51;;;;;;;7.13;3.60;;;16.40;93.10;;;;;;5037646;28;20501;-77
2023/07/31 02:24:18;;;;;;;4.87;3.23;;;16.40;92.70;;;;;;5019898;28;20456;-76
2023/07/31 02:26:45;;;;;;;8.47;3.73;;;16.40;92.70;;;;;;5037777;28;20421;-78
2023/07/31 02:29:12;;;;;;;6.90;3.90;;;16.40;92.90;;;;;;5038964;28;20511;-76
2023/07/31 02:31:39;;;;;;;5.83;3.20;;;16.40;92.70;;;;;;5019245;28;20658;-77
2023/07/31 02:34:06;;;;;;;3.87;3.40;;;16.40;92.60;;;;;;5039053;28;20511;-78
2023/07/31 02:36:33;;;;;;;4.90;3.53;;;16.50;92.60;;;;;;5040892;28;20505;-80
2023/07/31 02:39:00;;;;;;;5.57;3.30;;;16.40;92.60;;;;;;5032448;28;20445;-75
2023/07/31 02:41:27;;;;;;;7.27;3.40;;;16.40;92.40;;;;;;5038870;28;20642;-78
2023/07/31 02:43:54;;;;;;;7.50;3.70;;;16.30;92.20;;;;;;5031434;28;20486;-78
2023/07/31 02:46:24;;;;;;;10.43;4.40;;;16.40;92.40;;;;;;5039958;28;20461;-76
2023/07/31 02:48:51;;;;;;;4.47;3.13;;;16.40;92.10;;;;;;5036896;28;21064;-76
2023/07/31 02:51:20;;;;;;;10.40;3.70;;;16.40;91.90;;;;;;5037251;28;20473;-78
2023/07/31 02:53:48;;;;;;;8.03;3.73;;;16.30;92.10;;;;;;5036627;28;20446;-81
2023/07/31 02:56:14;;;;;;;6.57;3.40;;;16.20;92.60;;;;;;5037339;28;20476;-78
2023/07/31 02:58:42;;;;;;;8.10;3.70;;;16.10;92.70;;;;;;5042034;28;20531;-77
2023/07/31 03:01:08;;;;;;;9.93;3.77;;;16.00;92.60;;;;;;5032700;28;20489;-78
2023/07/31 03:03:36;;;;;;;7.03;3.83;;;16.00;92.70;;;;;;5036010;28;20502;-77
2023/07/31 03:06:03;;;;;;;4.37;3.97;;;16.00;92.60;;;;;;5037055;28;20757;-79
2023/07/31 03:08:31;;;;;;;9.40;4.17;;;16.00;92.60;;;;;;5036031;28;20526;-78
2023/07/31 03:10:59;;;;;;;4.83;3.70;;;16.00;92.10;;;;;;5038401;28;20445;-79
2023/07/31 03:13:25;;;;;;;6.77;4.50;;;16.00;92.10;;;;;;5038673;28;20842;-78
2023/07/31 03:15:53;;;;;;;4.73;4.27;;;16.00;92.10;;;;;;5030321;28;20442;-77
2023/07/31 03:18:20;;;;;;;12.40;4.60;;;15.90;92.20;;;;;;5029374;28;20441;-76
2023/07/31 03:20:47;;;;;;;6.23;3.97;;;15.80;92.40;;;;;;5037272;28;20481;-77
2023/07/31 03:23:14;;;;;;;6.33;4.60;;;15.80;92.20;;;;;;5040082;28;20537;-77
2023/07/31 03:25:56;;;;;;;8.17;4.23;;;15.80;92.40;;;;;;5043024;28;20445;-77
2023/07/31 03:28:23;;;;;;;4.77;3.27;;;15.60;92.00;;;;;;5038919;28;20448;-77
2023/07/31 03:30:52;;;;;;;5.70;4.13;;;15.70;92.50;;;;;;5033576;28;20451;-77
2023/07/31 03:33:19;;;;;;;7.03;4.23;;;15.70;92.70;;;;;;5032766;28;20540;-78
2023/07/31 03:35:46;;;;;;;7.80;4.50;;;15.60;92.60;;;;;;5036720;28;20421;-77
2023/07/31 03:38:13;;;;;;;6.83;3.90;;;15.60;93.00;;;;;;5036779;28;20465;-77
2023/07/31 03:40:40;;;;;;;5.27;3.73;;;15.60;92.90;;;;;;5028825;28;20492;-77
2023/07/31 03:43:07;;;;;;;4.50;3.40;;;15.60;92.90;;;;;;5037220;28;20939;-77
2023/07/31 03:45:35;;;;;;;8.00;3.97;;;15.60;92.90;;;;;;5036757;28;20510;-78
2023/07/31 03:48:03;;;;;;;8.27;4.20;;;15.60;93.10;;;;;;5027396;28;20509;-78
2023/07/31 03:50:32;;;;;;;9.97;4.80;;;15.60;92.70;;;;;;5034387;28;20445;-77
2023/07/31 03:52:58;;;;;;;7.67;4.23;;;15.60;92.90;;;;;;5019740;28;20458;-79
2023/07/31 03:55:26;;;;;;;7.40;3.43;;;15.70;92.40;;;;;;5037450;28;20468;-77
2023/07/31 03:57:53;;;;;;;10.53;4.50;;;15.60;92.20;;;;;;5044183;28;20428;-81
2023/07/31 04:00:21;;;;;;;7.33;4.20;;;15.50;92.50;;;;;;5038449;28;20428;-77
2023/07/31 04:02:48;;;;;;;9.93;3.67;;;15.60;92.70;;;;;;5041835;28;20506;-79
2023/07/31 04:05:15;;;;;;;8.30;4.20;;;15.60;92.50;;;;;;5032523;28;20641;-79
2023/07/31 04:07:43;;;;;;;7.30;4.03;;;15.70;92.40;;;;;;5025964;28;20916;-79
2023/07/31 04:10:11;;;;;;;12.57;4.43;;;15.70;92.20;;;;;;5026757;28;20443;-79
2023/07/31 04:12:39;;;;;;;7.90;3.83;;;15.70;92.20;;;;;;5040763;28;20480;-81
2023/07/31 04:15:06;;;;;;;13.13;4.63;;;15.70;92.00;;;;;;5038572;28;20433;-78
2023/07/31 04:17:34;;;;;;;7.80;4.20;;;15.80;92.10;;;;;;5040792;28;20472;-78
2023/07/31 04:20:01;;;;;;;8.33;4.83;;;15.80;92.10;;;;;;5043066;28;20415;-80
2023/07/31 04:22:28;;;;;;;3.83;3.47;;;15.90;92.20;;;;;;5025424;28;20487;-81
2023/07/31 04:24:55;;;;;;;10.73;4.47;;;15.90;92.00;;;;;;5026968;28;20469;-78
2023/07/31 04:27:22;;;;;;;11.63;5.57;;;15.90;91.80;;;;;;5043011;28;20465;-80
2023/07/31 04:29:50;;;;;;;4.70;4.33;;;16.10;91.90;;;;;;5041250;28;20491;-78
2023/07/31 04:32:17;;;;;;;7.87;4.93;;;16.10;91.50;;;;;;5034793;28;20509;-79
2023/07/31 04:34:44;;;;;;;11.40;5.00;;;16.30;91.70;;;;;;5038291;28;20492;-78
2023/07/31 04:37:11;;;;;;;9.17;4.20;;;16.30;91.00;;;;;;5039320;28;20421;-78
2023/07/31 04:39:39;;;;;;;12.40;4.03;;;16.60;90.60;;;;;;5044832;28;20465;-78
2023/07/31 04:42:09;;;;;;;6.13;3.60;;;16.70;90.00;;;;;;5038875;28;20724;-77
2023/07/31 04:44:36;;;;;;;5.57;3.83;;;16.80;90.00;;;;;;5037946;28;20900;-78
2023/07/31 04:47:03;;;;;;;13.93;5.50;;;17.00;88.60;;;;;;5022340;28;21025;-79
2023/07/31 04:49:32;;;;;;;7.87;4.27;;;17.10;88.80;;;;;;5032785;28;20668;-83
2023/07/31 04:51:59;;;;;;;7.80;4.50;;;17.20;88.80;;;;;;5018072;28;20428;-78
2023/07/31 04:54:26;;;;;;;11.23;5.20;;;17.30;87.30;;;;;;5035568;28;20485;-78
2023/07/31 04:56:53;;;;;;;5.70;4.07;;;17.40;86.80;;;;;;5036095;28;20503;-78
2023/07/31 04:59:20;;;;;;;6.60;4.13;;;17.50;86.60;;;;;;5036373;28;20772;-79
2023/07/31 05:01:47;;;;;;;5.40;4.40;;;17.60;86.10;;;;;;5036387;28;20448;-78
2023/07/31 05:04:15;;;;;;;6.70;4.70;;;17.70;86.00;;;;;;5036405;28;20484;-79
2023/07/31 05:06:42;;;;;;;10.43;4.40;;;17.80;85.50;;;;;;5032895;28;20440;-79
2023/07/31 05:09:10;;;;;;;5.73;4.27;;;17.90;85.70;;;;;;5022134;28;20458;-79
2023/07/31 05:11:37;;;;;;;8.37;4.73;;;18.00;84.40;;;;;;5019797;28;20444;-78
2023/07/31 05:14:05;;;;;;;12.10;4.70;;;18.10;84.00;;;;;;5038991;28;20446;-78
2023/07/31 05:16:32;;;;;;;4.43;3.93;;;18.40;83.50;;;;;;5040333;28;20445;-78
2023/07/31 05:19:00;;;;;;;7.33;4.00;;;18.40;83.20;;;;;;5037134;28;20442;-80
2023/07/31 05:21:31;;;;;;;8.80;3.80;;;18.60;83.20;;;;;;5042115;28;20437;-79
2023/07/31 05:23:58;;;;;;;9.70;4.40;;;18.60;81.90;;;;;;5045966;28;20606;-78
2023/07/31 05:26:25;;;;;;;6.73;3.90;;;18.60;81.60;;;;;;5051823;28;20412;-77
2023/07/31 05:28:52;;;;;;;5.67;3.93;;;18.60;81.40;;;;;;5047039;28;20692;-78
2023/07/31 05:31:20;;;;;;;14.37;4.00;;;18.80;80.10;;;;;;5033518;28;20445;-77
2023/07/31 05:33:47;;;;;;;5.73;3.20;;;18.70;81.60;;;;;;5028969;28;20506;-77
2023/07/31 05:36:14;;;;;;;7.40;3.53;;;18.80;80.80;;;;;;5039579;28;20809;-78
2023/07/31 05:38:43;;;;;;;7.87;3.90;;;18.80;80.80;;;;;;5038898;28;20459;-80
2023/07/31 05:41:12;;;;;;;6.17;3.67;;;18.90;80.30;;;;;;5038901;28;20832;-81
2023/07/31 05:43:39;;;;;;;4.93;3.17;;;18.90;79.50;;;;;;5022455;28;20617;-78
2023/07/31 05:46:06;;;;;;;4.97;4.27;;;19.00;79.40;;;;;;5022752;28;20416;-78
2023/07/31 05:48:34;;;;;;;7.47;3.77;;;19.20;79.20;;;;;;5039921;28;20420;-78
2023/07/31 05:51:01;;;;;;;5.53;4.20;;;19.30;78.40;;;;;;5018448;28;20416;-76
2023/07/31 05:53:28;;;;;;;7.70;3.63;;;19.50;76.20;;;;;;5040550;28;20548;-78
2023/07/31 05:55:56;;;;;;;11.23;3.23;;;19.80;76.40;;;;;;5036571;28;20587;-79
2023/07/31 05:58:23;;;;;;;3.70;2.70;;;19.80;75.90;;;;;;5049716;28;20509;-79
2023/07/31 06:00:51;;;;;;;10.80;3.77;;;20.00;76.20;;;;;;5035623;28;20516;-78
2023/07/31 06:03:18;;;;;;;10.00;3.93;;;20.20;73.70;;;;;;5039299;28;20509;-77
2023/07/31 06:05:45;;;;;;;7.50;2.90;;;20.00;73.70;;;;;;5039128;28;20437;-79
2023/07/31 06:08:12;;;;;;;5.93;2.53;;;20.00;74.00;;;;;;5040531;28;20546;-77
2023/07/31 06:10:39;;;;;;;9.57;4.60;;;20.20;72.50;;;;;;5037387;28;20473;-79
2023/07/31 06:13:06;;;;;;;7.67;4.00;;;20.30;72.50;;;;;;5032396;28;20470;-78
2023/07/31 06:15:33;;;;;;;5.53;3.63;;;20.20;72.40;;;;;;5036958;28;20612;-79
2023/07/31 06:18:04;;;;;;;4.57;3.83;;;20.20;72.90;;;;;;5023372;28;20882;-77
2023/07/31 06:20:31;;;;;;;5.43;3.60;;;20.20;73.70;;;;;;5036119;28;20770;-77
2023/07/31 06:22:58;;;;;;;13.00;3.23;;;20.20;72.90;;;;;;5038801;28;20501;-76
2023/07/31 06:25:25;;;;;;;4.97;3.40;;;20.20;74.50;;;;;;5033875;28;20516;-78
2023/07/31 06:27:52;;;;;;;3.90;3.50;;;20.40;72.20;;;;;;5036695;28;20633;-77
2023/07/31 06:30:19;;;;;;;4.60;2.77;;;20.40;72.90;;;;;;5019066;28;20500;-78
2023/07/31 06:32:46;;;;;;;8.73;3.27;;;20.60;72.00;;;;;;5037719;28;20444;-77
2023/07/31 06:35:13;;;;;;;8.93;4.00;;;20.50;71.20;;;;;;5031991;28;20420;-80
2023/07/31 06:37:40;;;;;;;6.03;3.20;;;20.30;73.00;;;;;;5037559;28;20481;-78
2023/07/31 06:40:09;;;;;;;3.77;2.73;;;20.40;74.30;;;;;;5037369;28;20442;-78
2023/07/31 06:42:36;;;;;;;6.33;2.80;;;20.60;73.60;;;;;;5021166;28;20446;-77
2023/07/31 06:45:03;;;;;;;4.23;3.30;;;20.80;72.80;;;;;;5036219;28;20523;-79
2023/07/31 06:47:31;;;;;;;10.10;3.90;;;21.30;71.60;;;;;;5036394;28;20417;-77
2023/07/31 06:49:59;;;;;;;4.60;2.30;;;21.50;71.50;;;;;;5038085;28;20441;-79
2023/07/31 06:52:26;;;;;;;5.17;3.50;;;21.70;70.50;;;;;;5035970;28;20543;-79
2023/07/31 06:55:18;;;;;;;5.73;3.67;;;21.80;70.40;;;;;;5025259;28;20440;-76
2023/07/31 06:57:49;;;;;;;3.27;2.97;;;21.80;70.40;;;;;;5018109;28;20748;-78
2023/07/31 07:00:17;;;;;;;4.87;3.37;;;21.50;70.10;;;;;;5028588;28;20852;-79
2023/07/31 07:02:44;;;;;;;4.47;2.87;;;21.30;71.30;;;;;;5028886;28;20425;-79
2023/07/31 07:05:11;;;;;;;5.47;2.50;;;21.40;70.40;;;;;;5036926;28;20460;-79
2023/07/31 07:07:38;;;;;;;4.10;2.80;;;21.50;71.00;;;;;;5036065;28;20736;-78
2023/07/31 07:10:06;;;;;;;3.87;2.67;;;21.10;72.40;;;;;;5036396;28;20480;-77
2023/07/31 07:12:33;;;;;;;9.13;3.60;;;21.20;72.60;;;;;;5039767;28;20456;-77
2023/07/31 07:15:01;;;;;;;4.40;2.80;;;21.10;72.10;;;;;;5040796;28;20455;-76
2023/07/31 07:17:30;;;;;;;9.37;3.27;;;21.10;73.60;;;;;;5035900;28;20662;-78
2023/07/31 07:19:58;;;;;;;4.63;2.63;;;21.30;71.70;;;;;;5033040;28;20446;-77
2023/07/31 07:22:25;;;;;;;4.60;2.90;;;21.40;69.30;;;;;;5029005;28;20420;-77
2023/07/31 07:24:53;;;;;;;5.10;3.40;;;21.60;69.00;;;;;;5033085;28;20508;-76
2023/07/31 07:27:20;;;;;;;5.77;3.30;;;21.70;70.20;;;;;;5033725;28;20420;-77
2023/07/31 07:29:49;;;;;;;8.23;3.10;;;21.90;69.20;;;;;;5033583;28;20536;-77
2023/07/31 07:32:17;;;;;;;7.30;6.70;;;22.10;68.20;;;;;;5035985;28;20512;-77
2023/07/31 07:34:44;;;;;;;4.90;3.40;;;22.20;67.90;;;;;;5026268;28;20424;-77
2023/07/31 07:37:11;;;;;;;6.00;3.10;;;22.70;67.40;;;;;;5035275;28;21514;-79
2023/07/31 07:39:38;;;;;;;3.30;3.00;;;22.80;64.70;;;;;;5037489;28;20478;-78
2023/07/31 07:42:05;;;;;;;4.90;2.33;;;22.70;65.10;;;;;;5035587;28;20469;-76
2023/07/31 07:44:33;;;;;;;8.80;3.00;;;22.80;64.40;;;;;;5033336;28;20488;-78
2023/07/31 07:47:00;;;;;;;5.20;3.27;;;22.90;62.80;;;;;;5031499;28;20427;-77
2023/07/31 07:49:26;;;;;;;4.17;2.70;;;23.60;62.20;;;;;;5024355;28;20438;-76
2023/07/31 07:51:54;;;;;;;5.93;3.20;;;24.30;60.70;;;;;;5008448;28;20483;-76
2023/07/31 07:54:21;;;;;;;5.40;2.27;;;25.70;57.30;;;;;;5021236;28;20468;-76
2023/07/31 07:56:48;;;;;;;7.03;5.80;;;26.30;55.10;;;;;;5033174;28;20512;-75
2023/07/31 07:59:15;;;;;;;3.83;3.53;;;26.60;53.50;;;;;;5031073;28;20621;-76
2023/07/31 08:01:42;;;;;;;6.13;2.80;;;26.70;54.50;;;;;;5030323;28;20474;-76
2023/07/31 08:04:09;;;;;;;4.67;2.70;;;27.10;53.20;;;;;;5032722;28;20841;-76
2023/07/31 08:06:36;;;;;;;4.73;3.20;;;27.70;51.80;;;;;;5033319;28;20442;-80
2023/07/31 08:09:06;;;;;;;4.17;3.77;;;28.30;50.70;;;;;;5034432;28;20443;-76
2023/07/31 08:11:33;;;;;;;3.63;2.53;;;28.80;46.90;;;;;;5034965;28;20448;-77
2023/07/31 08:14:00;;;;;;;4.80;2.63;;;27.70;48.70;;;;;;5037057;28;20514;-78
2023/07/31 08:16:27;;;;;;;2.60;2.33;;;27.30;50.20;;;;;;5051336;28;20433;-77
2023/07/31 08:18:54;;;;;;;3.53;2.20;;;28.10;51.70;;;;;;5056538;28;20457;-77
2023/07/31 08:21:21;;;;;;;3.20;2.60;;;29.20;48.80;;;;;;5037615;28;20758;-76
2023/07/31 08:23:48;;;;;;;9.83;2.97;;;29.50;49.10;;;;;;5036249;28;20440;-76
2023/07/31 08:26:19;;;;;;;3.40;3.10;;;30.30;43.40;;;;;;5031699;28;20512;-77
2023/07/31 08:28:47;;;;;;;5.43;2.93;;;30.30;47.20;;;;;;5034455;28;20505;-78
2023/07/31 08:31:13;;;;;;;4.30;3.87;;;30.60;44.20;;;;;;5033997;28;20544;-75
2023/07/31 08:33:41;;;;;;;3.40;2.73;;;29.90;43.00;;;;;;5034912;28;20521;-77
2023/07/31 08:36:07;;;;;;;3.63;3.20;;;28.70;48.10;;;;;;5021657;28;21014;-79
2023/07/31 08:38:34;;;;;;;5.73;2.83;;;28.60;51.20;;;;;;5023860;28;20762;-76
2023/07/31 08:41:05;;;;;;;3.30;2.63;;;28.80;49.90;;;;;;5033378;28;20468;-77
2023/07/31 08:43:33;;;;;;;3.03;2.73;;;28.00;47.70;;;;;;5034495;28;20489;-78
2023/07/31 08:46:01;;;;;;;4.03;2.77;;;27.30;52.50;;;;;;5033536;28;20540;-78
2023/07/31 08:48:30;;;;;;;3.93;2.23;;;26.80;51.00;;;;;;5031024;28;20442;-77
2023/07/31 08:50:57;;;;;;;5.73;4.90;;;26.00;52.30;;;;;;5015824;28;20460;-78
2023/07/31 08:53:24;;;;;;;3.67;2.90;;;25.50;52.90;;;;;;5033517;28;20460;-78
2023/07/31 08:55:54;;;;;;;4.10;3.40;;;25.20;56.90;;;;;;5034364;28;20564;-77
2023/07/31 08:58:21;;;;;;;3.83;3.00;;;25.00;55.30;;;;;;5027182;28;20517;-77
2023/07/31 09:00:48;;;;;;;3.67;3.30;;;24.50;57.20;;;;;;5029876;28;20512;-78
2023/07/31 09:03:23;;;;;;;3.47;3.00;;;24.20;58.80;;;;;;5035689;28;20449;-78
2023/07/31 09:05:50;;;;;;;3.50;3.00;;;24.00;58.70;;;;;;5036518;28;20460;-78
2023/07/31 09:08:21;;;;;;;10.27;4.00;;;23.80;58.00;;;;;;5019293;28;20467;-77
2023/07/31 09:10:49;;;;;;;7.60;3.80;;;23.60;57.80;;;;;;5036023;28;20456;-77
2023/07/31 09:13:17;;;;;;;6.17;3.57;;;23.70;58.10;;;;;;5036235;28;20488;-78
2023/07/31 09:15:46;;;;;;;7.40;3.60;;;23.40;58.30;;;;;;5031697;28;20457;-77
2023/07/31 09:18:17;;;;;;;3.13;2.83;;;23.60;59.80;;;;;;5033563;28;20567;-79
2023/07/31 09:20:44;;;;;;;3.80;3.50;;;24.00;57.00;;;;;;5029552;28;20425;-77
2023/07/31 09:23:13;;;;;;;9.03;3.77;;;24.00;55.50;;;;;;5037634;28;20451;-79
2023/07/31 09:25:43;;;;;;;6.03;3.63;;;23.90;56.50;;;;;;5018172;28;20511;-76
2023/07/31 09:28:11;;;;;;;5.57;3.57;;;23.60;56.80;;;;;;5033495;28;20489;-76
2023/07/31 09:30:50;;;;;;;8.50;4.40;;;23.40;57.10;;;;;;5015702;28;20488;-80
2023/07/31 09:33:20;;;;;;;5.17;3.70;;;23.50;57.30;;;;;;5040175;28;20411;-77
2023/07/31 09:35:48;;;;;;;4.50;3.80;;;23.30;57.70;;;;;;5040885;28;20455;-78
2023/07/31 09:38:16;;;;;;;8.83;3.53;;;23.10;58.30;;;;;;5038945;28;20420;-78
2023/07/31 09:40:45;;;;;;;4.73;3.73;;;23.10;57.60;;;;;;5038737;28;20423;-79
2023/07/31 09:43:13;;;;;;;7.30;3.43;;;23.20;58.30;;;;;;5034738;28;20403;-79
2023/07/31 09:45:42;;;;;;;4.73;3.80;;;22.90;58.80;;;;;;5054830;28;20604;-78
2023/07/31 09:48:11;;;;;;;4.47;3.40;;;22.90;58.80;;;;;;5046889;28;20485;-77
2023/07/31 09:50:40;;;;;;;3.77;3.03;;;22.90;58.50;;;;;;5040577;28;21032;-78
2023/07/31 09:53:08;;;;;;;4.57;3.13;;;23.00;58.30;;;;;;5046977;28;20465;-78
2023/07/31 09:55:36;;;;;;;6.10;3.97;;;22.90;58.70;;;;;;5044799;28;20501;-76
2023/07/31 09:58:06;;;;;;;10.20;3.70;;;23.00;58.10;;;;;;5031401;28;20505;-76
2023/07/31 10:00:33;;;;;;;6.90;3.30;;;23.00;58.30;;;;;;5035263;28;20420;-77
2023/07/31 10:03:05;;;;;;;7.20;3.60;;;23.20;59.80;;;;;;5037062;28;20807;-76
2023/07/31 10:05:37;;;;;;;5.60;4.17;;;23.20;57.60;;;;;;5034293;28;20909;-78
2023/07/31 10:08:07;;;;;;;4.70;3.60;;;22.80;59.20;;;;;;5030622;28;20420;-76
2023/07/31 10:10:36;;;;;;;6.23;4.90;;;22.80;59.50;;;;;;5036561;28;20419;-77
2023/07/31 10:13:04;;;;;;;4.40;3.00;;;22.50;60.00;;;;;;5018877;28;20474;-78
2023/07/31 10:15:32;;;;;;;5.50;3.23;;;22.80;60.40;;;;;;5025279;28;20438;-78
2023/07/31 10:18:02;;;;;;;7.97;3.73;;;22.50;60.20;;;;;;5007050;28;20464;-76
2023/07/31 10:20:29;;;;;;;7.37;3.57;;;22.60;60.50;;;;;;5016120;28;20416;-77
2023/07/31 10:22:56;;;;;;;4.67;3.07;;;23.00;60.80;;;;;;5037265;28;20416;-78
2023/07/31 10:25:24;;;;;;;3.87;3.00;;;23.00;59.40;;;;;;5034252;28;20511;-77
2023/07/31 10:27:52;;;;;;;8.60;3.50;;;22.90;60.40;;;;;;5027508;28;20467;-76
2023/07/31 10:30:24;;;;;;;3.97;2.40;;;22.80;59.20;;;;;;5009139;28;20417;-78
2023/07/31 10:32:53;;;;;;;4.70;3.23;;;22.70;60.40;;;;;;5029850;28;20429;-77
2023/07/31 10:35:22;;;;;;;5.73;3.03;;;22.90;59.90;;;;;;5050291;28;20446;-77
2023/07/31 10:37:49;;;;;;;4.90;3.33;;;23.10;59.00;;;;;;5045672;28;21035;-81
2023/07/31 10:40:17;;;;;;;2.83;2.63;;;23.30;59.80;;;;;;5036613;28;20947;-76
2023/07/31 10:42:49;;;;;;;3.13;2.83;;;23.40;58.50;;;;;;5036562;28;20491;-77
2023/07/31 10:45:33;;;;;;;3.53;2.13;;;23.40;58.70;;;;;;5022110;28;20456;-78
2023/07/31 10:48:12;;;;;;;7.00;3.07;;;23.40;57.80;;;;;;5036982;28;20457;-77
2023/07/31 10:50:51;;;;;;;4.73;2.53;;;23.20;58.00;;;;;;5012717;28;20441;-77
2023/07/31 10:53:31;;;;;;;6.30;3.40;;;23.10;59.20;;;;;;5033997;28;20465;-78
2023/07/31 10:56:04;;;;;;;2.80;2.50;;;22.80;59.40;;;;;;5038629;28;20431;-76
2023/07/31 10:58:32;;;;;;;3.10;2.90;;;22.70;59.90;;;;;;5036136;28;20625;-77
2023/07/31 11:01:07;;;;;;;5.20;3.33;;;22.60;59.80;;;;;;5040773;28;20424;-78
2023/07/31 11:03:43;;;;;;;4.07;3.67;;;22.90;60.20;;;;;;5029427;28;20505;-80
2023/07/31 11:06:14;;;;;;;4.90;3.87;;;23.20;60.70;;;;;;5036813;28;20452;-78
2023/07/31 11:08:49;;;;;;;5.00;3.87;;;23.40;60.40;;;;;;5025083;28;20458;-76
2023/07/31 11:11:20;;;;;;;5.90;3.87;;;23.40;58.60;;;;;;5036770;28;20508;-76
2023/07/31 11:13:53;;;;;;;5.00;3.63;;;23.50;57.60;;;;;;5036573;28;20496;-76
2023/07/31 11:16:22;;;;;;;4.50;3.37;;;23.60;59.20;;;;;;5036391;28;20855;-77
2023/07/31 11:18:51;;;;;;;4.07;2.63;;;23.70;58.60;;;;;;5035426;28;21050;-78
2023/07/31 11:21:21;;;;;;;4.17;2.80;;;24.30;56.20;;;;;;5035181;28;20456;-80
2023/07/31 11:23:50;;;;;;;12.00;3.17;;;24.70;55.00;;;;;;5030831;28;20505;-78
2023/07/31 11:26:18;;;;;;;2.93;2.23;;;25.00;54.30;;;;;;5029406;28;20508;-82
2023/07/31 11:28:47;;;;;;;3.70;3.30;;;25.30;53.80;;;;;;5035071;28;20743;-77
2023/07/31 11:31:15;;;;;;;4.60;3.20;;;25.00;53.60;;;;;;5034583;28;20442;-77
2023/07/31 11:33:42;;;;;;;3.30;3.00;;;25.00;53.20;;;;;;5032250;28;20474;-78
2023/07/31 11:36:20;;;;;;;4.83;3.37;;;24.90;53.80;;;;;;5033540;28;20456;-77
2023/07/31 11:38:47;;;;;;;3.90;3.60;;;24.90;54.00;;;;;;5028570;28;20466;-77
2023/07/31 11:41:16;;;;;;;4.00;3.40;;;24.90;55.00;;;;;;5025667;28;20484;-79
2023/07/31 11:43:47;;;;;;;4.53;3.70;;;24.90;53.10;;;;;;5015767;28;20412;-77
2023/07/31 11:46:14;;;;;;;4.87;3.40;;;24.70;53.90;;;;;;5015170;28;20883;-77
2023/07/31 11:48:42;;;;;;;6.03;3.40;;;24.60;54.40;;;;;;5028995;28;20441;-77
2023/07/31 11:51:12;;;;;;;3.60;3.30;;;24.80;54.30;;;;;;5017781;28;20438;-80
2023/07/31 11:53:46;;;;;;;7.10;3.90;;;24.90;54.50;;;;;;5034793;28;20481;-77
2023/07/31 11:56:16;;;;;;;6.53;3.40;;;25.20;54.20;;;;;;5034590;28;20504;-76
2023/07/31 11:58:46;;;;;;;3.83;3.43;;;25.40;53.40;;;;;;5034967;28;20428;-79
2023/07/31 12:01:15;;;;;;;7.47;3.10;;;26.00;51.80;;;;;;5017228;28;20921;-77
2023/07/31 12:03:45;;;;;;;3.50;3.20;;;26.30;51.00;;;;;;5028550;28;20473;-77
2023/07/31 12:06:13;;;;;;;3.53;3.20;;;26.60;50.40;;;;;;5034301;28;20487;-77
2023/07/31 12:08:40;;;;;;;4.60;4.20;;;26.30;50.70;;;;;;5014422;28;20473;-76
2023/07/31 12:11:17;;;;;;;4.17;3.47;;;26.10;51.30;;;;;;5029332;28;20427;-77
2023/07/31 12:13:44;;;;;;;4.60;3.50;;;25.80;51.30;;;;;;5006072;28;20499;-78
2023/07/31 12:16:11;;;;;;;4.87;3.57;;;26.10;51.50;;;;;;5029405;28;20423;-77
2023/07/31 12:18:39;;;;;;;3.80;2.90;;;25.80;51.70;;;;;;5033474;28;20412;-76
2023/07/31 12:21:08;;;;;;;4.00;3.33;;;26.10;50.90;;;;;;5035308;28;20413;-78
2023/07/31 12:23:36;;;;;;;3.40;2.80;;;26.40;51.90;;;;;;5034465;28;20468;-77
2023/07/31 12:26:13;;;;;;;4.20;3.80;;;26.20;51.10;;;;;;5031224;28;20480;-79
2023/07/31 12:28:48;;;;;;;6.33;3.10;;;25.80;51.70;;;;;;5033541;28;20505;-77
2023/07/31 12:31:20;;;;;;;3.03;2.77;;;25.90;51.30;;;;;;5036093;28;20435;-79
2023/07/31 12:33:50;;;;;;;6.13;3.60;;;26.30;50.50;;;;;;5031647;28;20445;-80
2023/07/31 12:36:20;;;;;;;5.50;3.50;;;26.20;50.80;;;;;;5017947;28;20741;-78
2023/07/31 12:38:47;;;;;;;5.67;3.43;;;26.20;50.80;;;;;;5037725;28;20416;-77
2023/07/31 12:41:15;;;;;;;8.80;4.33;;;26.60;51.30;;;;;;5027721;28;20427;-75
2023/07/31 12:43:44;;;;;;;3.80;3.10;;;26.40;50.60;;;;;;5038630;28;20483;-76
2023/07/31 12:46:11;;;;;;;5.03;3.73;;;26.10;50.10;;;;;;5038694;28;20489;-77
2023/07/31 12:48:39;;;;;;;5.67;4.13;;;26.20;51.40;;;;;;5038617;28;20449;-78
2023/07/31 12:51:08;;;;;;;5.70;5.10;;;26.40;49.80;;;;;;5053523;28;20442;-79